createdAt,value
2022-07-26T00:00:17.009Z,14.35
2022-07-26T00:02:47.297Z,14.36
2022-07-26T00:05:18.484Z,14.33
2022-07-26T00:07:46.231Z,14.31
2022-07-26T00:10:13.592Z,14.33
2022-07-26T00:12:40.650Z,14.36
2022-07-26T00:15:10.735Z,14.24
2022-07-26T00:17:38.599Z,14.28
2022-07-26T00:20:06.528Z,14.24
2022-07-26T00:22:36.449Z,14.31
2022-07-26T00:25:07.638Z,14.14
2022-07-26T00:27:37.341Z,14.16
2022-07-26T00:30:09.042Z,14.16
2022-07-26T00:32:37.342Z,14.15
2022-07-26T00:35:05.712Z,14.14
2022-07-26T00:37:33.245Z,14.06
2022-07-26T00:40:00.058Z,14.10
2022-07-26T00:42:27.203Z,14.11
2022-07-26T00:44:54.065Z,14.11
2022-07-26T00:47:20.950Z,14.09
2022-07-26T00:49:47.845Z,13.91
2022-07-26T00:52:14.769Z,13.80
2022-07-26T00:54:45.729Z,13.76
2022-07-26T00:57:14.147Z,13.82
2022-07-26T00:59:41.481Z,13.79
2022-07-26T01:02:09.956Z,13.80
2022-07-26T01:04:37.373Z,13.78
2022-07-26T01:07:15.364Z,13.83
2022-07-26T01:09:42.937Z,13.88
2022-07-26T01:12:10.415Z,13.91
2022-07-26T01:14:37.638Z,13.95
2022-07-26T01:17:04.680Z,13.93
2022-07-26T01:19:31.622Z,13.81
2022-07-26T01:21:58.572Z,13.94
2022-07-26T01:24:25.605Z,13.88
2022-07-26T01:26:52.498Z,13.89
2022-07-26T01:29:19.313Z,13.88
2022-07-26T01:31:46.304Z,13.83
2022-07-26T01:34:13.338Z,13.78
2022-07-26T01:36:40.175Z,13.78
2022-07-26T01:39:07.330Z,13.70
2022-07-26T01:41:37.448Z,13.73
2022-07-26T01:44:06.348Z,13.79
2022-07-26T01:46:34.784Z,13.69
2022-07-26T01:49:02.010Z,13.67
2022-07-26T01:51:29.218Z,13.73
2022-07-26T01:53:56.784Z,13.69
2022-07-26T01:56:23.998Z,13.63
2022-07-26T01:58:50.918Z,13.57
2022-07-26T02:01:37.749Z,13.60
2022-07-26T02:04:05.112Z,13.51
2022-07-26T02:06:32.189Z,13.51
2022-07-26T02:09:00.755Z,13.51
2022-07-26T02:11:28.930Z,13.50
2022-07-26T02:13:55.723Z,13.45
2022-07-26T02:16:22.966Z,13.55
2022-07-26T02:18:50.033Z,13.41
2022-07-26T02:21:16.883Z,13.38
2022-07-26T02:23:43.761Z,13.25
2022-07-26T02:26:10.639Z,13.23
2022-07-26T02:28:37.446Z,13.15
2022-07-26T02:31:04.326Z,13.15
2022-07-26T02:33:31.190Z,13.13
2022-07-26T02:35:58.091Z,13.08
2022-07-26T02:38:25.274Z,13.20
2022-07-26T02:40:52.900Z,13.16
2022-07-26T02:43:20.159Z,13.14
2022-07-26T02:45:58.885Z,13.17
2022-07-26T02:48:31.131Z,13.12
2022-07-26T02:50:58.222Z,13.02
2022-07-26T02:53:25.065Z,13.09
2022-07-26T02:55:51.932Z,13.10
2022-07-26T02:58:21.675Z,13.01
2022-07-26T03:00:48.839Z,13.03
2022-07-26T03:03:16.026Z,12.91
2022-07-26T03:05:42.908Z,12.86
2022-07-26T03:08:10.024Z,12.85
2022-07-26T03:10:36.889Z,12.92
2022-07-26T03:13:03.753Z,12.82
2022-07-26T03:15:30.667Z,12.88
2022-07-26T03:17:57.662Z,12.85
2022-07-26T03:20:24.579Z,12.90
2022-07-26T03:22:51.432Z,12.87
2022-07-26T03:25:18.292Z,12.89
2022-07-26T03:27:45.083Z,12.84
2022-07-26T03:30:12.989Z,12.85
2022-07-26T03:32:39.851Z,12.93
2022-07-26T03:35:08.295Z,12.92
2022-07-26T03:37:46.296Z,12.85
2022-07-26T03:40:15.882Z,12.94
2022-07-26T03:42:43.078Z,12.97
2022-07-26T03:45:10.325Z,12.94
2022-07-26T03:47:37.519Z,12.93
2022-07-26T03:50:08.611Z,12.93
2022-07-26T03:52:35.610Z,13.02
2022-07-26T03:55:22.876Z,12.98
2022-07-26T03:57:49.557Z,12.93
2022-07-26T04:00:16.722Z,12.98
2022-07-26T04:02:44.021Z,12.95
2022-07-26T04:05:11.330Z,12.90
2022-07-26T04:07:52.487Z,12.89
2022-07-26T04:10:21.451Z,12.89
2022-07-26T04:12:48.886Z,12.98
2022-07-26T04:15:17.218Z,13.04
2022-07-26T04:17:44.156Z,13.03
2022-07-26T04:20:12.049Z,13.10
2022-07-26T04:22:39.929Z,13.07
2022-07-26T04:25:08.475Z,13.05
2022-07-26T04:27:35.885Z,12.90
2022-07-26T04:30:02.859Z,12.99
2022-07-26T04:32:30.054Z,13.03
2022-07-26T04:34:56.898Z,13.12
2022-07-26T04:37:23.800Z,13.13
2022-07-26T04:39:54.898Z,13.18
2022-07-26T04:42:22.091Z,13.19
2022-07-26T04:44:49.000Z,13.25
2022-07-26T04:47:15.906Z,13.29
2022-07-26T04:49:42.769Z,13.33
2022-07-26T04:52:09.600Z,13.33
2022-07-26T04:54:36.411Z,13.33
2022-07-26T04:57:03.334Z,13.33
2022-07-26T04:59:32.632Z,13.38
2022-07-26T05:01:59.814Z,13.41
2022-07-26T05:04:27.008Z,13.36
2022-07-26T05:06:53.851Z,13.41
2022-07-26T05:09:20.905Z,13.39
2022-07-26T05:11:47.713Z,13.37
2022-07-26T05:14:14.608Z,13.40
2022-07-26T05:16:44.322Z,13.46
2022-07-26T05:19:13.692Z,13.38
2022-07-26T05:21:41.122Z,13.42
2022-07-26T05:24:08.638Z,13.45
2022-07-26T05:26:35.652Z,13.42
2022-07-26T05:29:02.765Z,13.48
2022-07-26T05:31:29.700Z,13.48
2022-07-26T05:33:56.664Z,13.48
2022-07-26T05:36:23.501Z,13.51
2022-07-26T05:38:50.349Z,13.57
2022-07-26T05:41:17.529Z,13.59
2022-07-26T05:43:44.427Z,13.68
2022-07-26T05:46:12.547Z,13.74
2022-07-26T05:48:40.013Z,13.73
2022-07-26T05:51:06.922Z,13.69
2022-07-26T05:53:34.149Z,13.68
2022-07-26T05:56:01.173Z,13.66
2022-07-26T05:58:28.087Z,13.66
2022-07-26T06:00:55.011Z,13.61
2022-07-26T06:03:25.913Z,13.59
2022-07-26T06:05:59.268Z,13.56
2022-07-26T06:08:26.986Z,13.55
2022-07-26T06:10:55.245Z,13.51
2022-07-26T06:13:22.515Z,13.48
2022-07-26T06:15:49.976Z,13.50
2022-07-26T06:18:17.020Z,13.39
2022-07-26T06:20:46.781Z,13.47
2022-07-26T06:23:14.256Z,13.48
2022-07-26T06:25:41.833Z,13.53
2022-07-26T06:28:10.621Z,13.45
2022-07-26T06:30:38.688Z,13.48
2022-07-26T06:33:06.518Z,13.53
2022-07-26T06:35:35.570Z,13.70
2022-07-26T06:38:03.173Z,13.74
2022-07-26T06:40:30.281Z,13.79
2022-07-26T06:43:01.278Z,13.88
2022-07-26T06:45:33.209Z,14.01
2022-07-26T06:48:00.222Z,13.97
2022-07-26T06:50:27.102Z,13.92
2022-07-26T06:52:54.009Z,13.99
2022-07-26T06:55:20.911Z,14.04
2022-07-26T06:57:49.816Z,14.11
2022-07-26T07:00:18.121Z,14.10
2022-07-26T07:02:45.140Z,14.02
2022-07-26T07:05:12.684Z,14.16
2022-07-26T07:07:42.212Z,14.08
2022-07-26T07:10:10.641Z,14.12
2022-07-26T07:12:40.759Z,14.21
2022-07-26T07:15:08.278Z,14.03
2022-07-26T07:17:35.331Z,13.97
2022-07-26T07:20:04.607Z,13.91
2022-07-26T07:22:32.191Z,13.91
2022-07-26T07:24:59.140Z,13.90
2022-07-26T07:27:27.357Z,13.91
2022-07-26T07:29:54.246Z,13.99
2022-07-26T07:32:23.069Z,13.93
2022-07-26T07:34:51.760Z,13.79
2022-07-26T07:37:20.286Z,13.70
2022-07-26T07:39:50.174Z,13.64
2022-07-26T07:42:18.334Z,13.76
2022-07-26T07:44:45.174Z,13.68
2022-07-26T07:47:12.278Z,13.50
2022-07-26T07:49:39.676Z,13.62
2022-07-26T07:52:06.730Z,13.59
2022-07-26T07:54:33.637Z,13.77
2022-07-26T07:57:00.481Z,13.77
2022-07-26T07:59:27.575Z,13.98
2022-07-26T08:01:56.361Z,13.99
2022-07-26T08:04:23.338Z,13.89
2022-07-26T08:06:51.499Z,14.12
2022-07-26T08:09:19.265Z,14.30
2022-07-26T08:11:50.688Z,14.22
2022-07-26T08:14:19.079Z,14.29
2022-07-26T08:16:46.559Z,14.26
2022-07-26T08:19:14.425Z,14.39
2022-07-26T08:21:43.194Z,14.39
2022-07-26T08:24:10.999Z,14.29
2022-07-26T08:26:38.569Z,14.22
2022-07-26T08:29:05.633Z,14.15
2022-07-26T08:31:32.522Z,14.30
2022-07-26T08:33:59.422Z,14.18
2022-07-26T08:36:31.907Z,14.34
2022-07-26T08:39:00.335Z,14.42
2022-07-26T08:41:27.210Z,14.50
2022-07-26T08:43:54.207Z,14.54
2022-07-26T08:46:26.303Z,14.66
2022-07-26T08:48:54.585Z,14.55
2022-07-26T08:51:24.687Z,14.76
2022-07-26T08:54:04.229Z,14.73
2022-07-26T08:56:43.222Z,14.74
2022-07-26T08:59:20.841Z,14.81
2022-07-26T09:01:55.758Z,14.92
2022-07-26T09:04:32.362Z,15.03
2022-07-26T09:07:12.760Z,15.03
2022-07-26T09:09:56.258Z,15.13
2022-07-26T09:12:24.854Z,15.06
2022-07-26T09:14:52.242Z,15.06
2022-07-26T09:17:22.746Z,15.06
2022-07-26T09:20:11.370Z,15.29
2022-07-26T09:22:55.493Z,15.30
2022-07-26T09:25:24.633Z,15.13
2022-07-26T09:27:52.607Z,15.20
2022-07-26T09:30:20.565Z,15.19
2022-07-26T09:33:02.167Z,15.16
2022-07-26T09:35:50.504Z,15.25
2022-07-26T09:38:18.126Z,15.15
2022-07-26T09:40:50.664Z,15.21
2022-07-26T09:43:22.073Z,15.26
2022-07-26T09:46:05.075Z,15.33
2022-07-26T09:48:52.178Z,15.16
2022-07-26T09:51:37.404Z,15.11
2022-07-26T09:54:05.359Z,15.15
2022-07-26T09:56:49.047Z,15.25
2022-07-26T09:59:21.970Z,15.30
2022-07-26T10:01:50.840Z,15.19
2022-07-26T10:04:18.698Z,15.29
2022-07-26T10:06:46.133Z,15.35
2022-07-26T10:09:14.091Z,15.48
2022-07-26T10:11:55.425Z,15.33
2022-07-26T10:14:37.304Z,15.47
2022-07-26T10:17:31.315Z,15.66
2022-07-26T10:20:10.710Z,15.76
2022-07-26T10:22:50.707Z,15.54
2022-07-26T10:25:17.619Z,15.69
2022-07-26T10:27:56.044Z,15.61
2022-07-26T10:30:33.934Z,15.35
2022-07-26T10:33:13.516Z,15.54
2022-07-26T10:35:43.418Z,15.44
2022-07-26T10:38:24.165Z,15.81
2022-07-26T10:41:04.775Z,15.80
2022-07-26T10:43:41.024Z,15.95
2022-07-26T10:46:20.171Z,16.17
2022-07-26T10:48:57.038Z,16.14
2022-07-26T10:51:29.701Z,16.46
2022-07-26T10:54:04.612Z,16.71
2022-07-26T10:56:33.728Z,16.78
2022-07-26T10:59:02.071Z,16.65
2022-07-26T11:01:37.479Z,16.76
2022-07-26T11:04:05.626Z,16.79
2022-07-26T11:06:33.887Z,16.81
2022-07-26T11:09:10.781Z,16.88
2022-07-26T11:11:37.585Z,17.03
2022-07-26T11:14:09.654Z,17.11
2022-07-26T11:16:44.016Z,17.23
2022-07-26T11:19:27.666Z,17.34
2022-07-26T11:21:59.893Z,17.68
2022-07-26T11:24:27.992Z,17.62
2022-07-26T11:26:55.818Z,17.88
2022-07-26T11:29:38.261Z,17.93
2022-07-26T11:32:18.552Z,18.05
2022-07-26T11:34:46.381Z,18.32
2022-07-26T11:37:14.316Z,18.39
2022-07-26T11:39:41.388Z,18.56
2022-07-26T11:42:11.857Z,18.44
2022-07-26T11:44:42.984Z,18.47
2022-07-26T11:47:25.489Z,18.70
2022-07-26T11:52:40.889Z,19.13
2022-07-26T11:55:08.628Z,19.18
2022-07-26T11:57:35.485Z,19.06
2022-07-26T12:00:02.958Z,19.39
2022-07-26T12:02:30.743Z,19.30
2022-07-26T12:05:20.746Z,19.41
2022-07-26T12:07:55.262Z,19.35
2022-07-26T12:10:22.309Z,19.16
2022-07-26T12:12:49.289Z,19.04
2022-07-26T12:15:16.384Z,18.93
2022-07-26T12:17:59.747Z,18.75
2022-07-26T12:20:28.180Z,18.73
2022-07-26T12:22:58.029Z,18.75
2022-07-26T12:25:29.509Z,18.49
2022-07-26T12:27:57.267Z,18.63
2022-07-26T12:30:25.817Z,18.89
2022-07-26T12:33:02.283Z,18.48
2022-07-26T12:35:35.801Z,18.74
2022-07-26T12:38:03.618Z,18.97
2022-07-26T12:40:39.844Z,19.03
2022-07-26T12:43:06.689Z,19.02
2022-07-26T12:45:35.247Z,19.00
2022-07-26T12:48:10.210Z,19.08
2022-07-26T12:50:37.858Z,19.02
2022-07-26T12:53:09.174Z,19.24
2022-07-26T12:55:39.751Z,19.34
2022-07-26T12:58:06.568Z,19.40
2022-07-26T13:00:33.534Z,19.13
2022-07-26T13:03:00.394Z,19.07
2022-07-26T13:05:27.422Z,19.11
2022-07-26T13:07:55.723Z,19.07
2022-07-26T13:10:33.561Z,19.27
2022-07-26T13:13:01.263Z,18.80
2022-07-26T13:15:36.977Z,19.25
2022-07-26T13:18:07.934Z,19.45
2022-07-26T13:20:38.498Z,19.36
2022-07-26T13:23:06.456Z,19.29
2022-07-26T13:25:38.432Z,19.46
2022-07-26T13:28:07.895Z,19.65
2022-07-26T13:30:37.290Z,19.64
2022-07-26T13:33:04.861Z,19.45
2022-07-26T13:35:31.709Z,19.30
2022-07-26T13:37:58.519Z,19.33
2022-07-26T13:40:30.935Z,19.13
2022-07-26T13:42:58.579Z,19.03
2022-07-26T13:45:29.166Z,19.42
2022-07-26T13:47:58.830Z,19.27
2022-07-26T13:50:28.986Z,19.59
2022-07-26T13:52:57.174Z,19.76
2022-07-26T13:55:25.325Z,19.98
2022-07-26T13:57:55.823Z,19.98
2022-07-26T14:00:29.418Z,19.92
2022-07-26T14:02:58.763Z,19.86
2022-07-26T14:05:27.283Z,19.69
2022-07-26T14:07:54.810Z,19.44
2022-07-26T14:10:23.352Z,19.34
2022-07-26T14:12:50.614Z,19.25
2022-07-26T14:15:22.264Z,19.20
2022-07-26T14:17:53.822Z,19.29
2022-07-26T14:20:21.776Z,19.22
2022-07-26T14:22:53.543Z,19.25
2022-07-26T14:25:21.857Z,19.33
2022-07-26T14:27:50.136Z,19.27
2022-07-26T14:30:17.118Z,19.37
2022-07-26T14:32:44.097Z,19.09
2022-07-26T14:35:11.303Z,19.18
2022-07-26T14:37:41.620Z,19.24
2022-07-26T14:40:14.275Z,19.26
2022-07-26T14:42:42.104Z,19.44
2022-07-26T14:45:09.925Z,19.44
2022-07-26T14:47:37.785Z,19.29
2022-07-26T14:50:07.523Z,19.45
2022-07-26T14:52:37.519Z,19.43
2022-07-26T14:55:05.315Z,19.43
2022-07-26T14:57:32.176Z,19.55
2022-07-26T14:59:59.417Z,19.88
2022-07-26T15:02:26.795Z,19.80
2022-07-26T15:04:54.099Z,19.59
2022-07-26T15:07:20.983Z,19.63
2022-07-26T15:09:47.794Z,19.52
2022-07-26T15:12:14.695Z,19.54
2022-07-26T15:14:46.419Z,19.52
2022-07-26T15:17:13.835Z,19.60
2022-07-26T15:19:41.141Z,19.79
2022-07-26T15:22:08.150Z,19.84
2022-07-26T15:24:39.439Z,20.00
2022-07-26T15:27:07.112Z,19.57
2022-07-26T15:29:36.034Z,19.63
2022-07-26T15:32:04.537Z,19.49
2022-07-26T15:34:32.239Z,19.64
2022-07-26T15:36:59.757Z,19.46
2022-07-26T15:39:26.768Z,19.58
2022-07-26T15:41:55.123Z,19.14
2022-07-26T15:44:25.663Z,19.31
2022-07-26T15:46:52.916Z,19.40
2022-07-26T15:49:20.224Z,19.27
2022-07-26T15:51:47.700Z,19.34
2022-07-26T15:54:16.059Z,19.29
2022-07-26T15:56:44.075Z,19.45
2022-07-26T15:59:11.013Z,19.40
2022-07-26T16:01:38.434Z,19.38
2022-07-26T16:04:05.902Z,19.42
2022-07-26T16:06:34.131Z,19.13
2022-07-26T16:09:19.288Z,19.16
2022-07-26T16:11:47.447Z,19.36
2022-07-26T16:14:14.944Z,19.39
2022-07-26T16:16:41.979Z,19.45
2022-07-26T16:19:09.579Z,19.35
2022-07-26T16:21:37.651Z,19.35
2022-07-26T16:24:07.547Z,19.53
2022-07-26T16:26:35.520Z,19.40
2022-07-26T16:29:02.754Z,19.54
2022-07-26T16:31:31.014Z,19.46
2022-07-26T16:33:58.065Z,19.33
2022-07-26T16:36:25.072Z,19.33
2022-07-26T16:38:52.021Z,19.11
2022-07-26T16:41:19.074Z,19.28
2022-07-26T16:43:46.106Z,19.42
2022-07-26T16:46:12.974Z,19.26
2022-07-26T16:48:39.922Z,19.31
2022-07-26T16:51:06.895Z,19.35
2022-07-26T16:53:33.809Z,19.34
2022-07-26T16:56:00.852Z,19.38
2022-07-26T16:58:27.726Z,19.24
2022-07-26T17:00:55.084Z,19.03
2022-07-26T17:03:21.934Z,18.95
2022-07-26T17:05:48.767Z,18.79
2022-07-26T17:08:15.969Z,18.73
2022-07-26T17:10:43.431Z,18.80
2022-07-26T17:13:10.506Z,18.86
2022-07-26T17:15:37.329Z,18.92
2022-07-26T17:18:04.579Z,19.05
2022-07-26T17:20:31.540Z,19.22
2022-07-26T17:22:58.409Z,19.22
2022-07-26T17:25:25.436Z,19.11
2022-07-26T17:27:52.281Z,19.06
2022-07-26T17:30:19.706Z,18.99
2022-07-26T17:32:46.594Z,18.96
2022-07-26T17:35:13.761Z,18.98
2022-07-26T17:37:40.658Z,19.10
2022-07-26T17:40:09.213Z,19.13
2022-07-26T17:42:36.776Z,19.13
2022-07-26T17:45:05.890Z,19.09
2022-07-26T17:47:32.736Z,18.97
2022-07-26T17:52:52.394Z,19.10
2022-07-26T17:55:20.342Z,19.15
2022-07-26T17:57:49.657Z,19.10
2022-07-26T18:00:21.753Z,19.18
2022-07-26T18:02:49.384Z,19.16
2022-07-26T18:05:18.394Z,19.21
2022-07-26T18:07:45.413Z,19.17
2022-07-26T18:10:14.412Z,19.18
2022-07-26T18:12:41.972Z,19.74
2022-07-26T18:15:09.364Z,20.44
2022-07-26T18:17:36.673Z,20.13
2022-07-26T18:20:05.185Z,19.48
2022-07-26T18:22:32.029Z,19.23
2022-07-26T18:24:58.868Z,18.86
2022-07-26T18:27:28.382Z,18.79
2022-07-26T18:29:55.975Z,18.59
2022-07-26T18:32:23.196Z,18.45
2022-07-26T18:34:52.147Z,18.38
2022-07-26T18:37:20.518Z,18.32
2022-07-26T18:39:52.694Z,18.29
2022-07-26T18:42:22.401Z,18.18
2022-07-26T18:44:49.437Z,18.07
2022-07-26T18:47:16.366Z,18.04
2022-07-26T18:49:43.725Z,18.07
2022-07-26T18:52:10.610Z,17.97
2022-07-26T18:54:37.641Z,17.83
2022-07-26T18:57:04.906Z,17.89
2022-07-26T19:00:08.399Z,17.72
2022-07-26T19:02:36.442Z,17.69
2022-07-26T19:05:05.443Z,17.74
2022-07-26T19:07:32.620Z,17.54
2022-07-26T19:10:02.846Z,17.52
2022-07-26T19:12:30.130Z,17.52
2022-07-26T19:15:00.546Z,17.41
2022-07-26T19:17:31.708Z,17.41
2022-07-26T19:20:07.545Z,17.35
2022-07-26T19:22:35.037Z,17.14
2022-07-26T19:25:08.473Z,17.20
2022-07-26T19:27:39.768Z,17.19
2022-07-26T19:30:08.652Z,17.02
2022-07-26T19:32:35.869Z,16.79
2022-07-26T19:35:05.570Z,16.76
2022-07-26T19:37:32.840Z,16.76
2022-07-26T19:40:01.584Z,16.68
2022-07-26T19:42:31.880Z,16.64
2022-07-26T19:44:59.949Z,16.47
2022-07-26T19:47:27.265Z,16.44
2022-07-26T19:49:54.690Z,16.47
2022-07-26T19:52:21.725Z,16.35
2022-07-26T19:54:48.559Z,16.34
2022-07-26T19:57:19.706Z,16.35
2022-07-26T19:59:47.666Z,16.27
2022-07-26T20:02:14.882Z,16.13
2022-07-26T20:04:45.870Z,16.12
2022-07-26T20:07:16.072Z,16.09
2022-07-26T20:09:42.926Z,15.97
2022-07-26T20:12:09.816Z,15.88
2022-07-26T20:14:36.708Z,15.78
2022-07-26T20:17:04.948Z,15.70
2022-07-26T20:19:39.257Z,15.70
2022-07-26T20:22:06.146Z,15.70
2022-07-26T20:24:33.099Z,15.76
2022-07-26T20:27:01.355Z,15.70
2022-07-26T20:29:28.241Z,15.54
2022-07-26T20:31:55.486Z,15.46
2022-07-26T20:34:22.547Z,15.39
2022-07-26T20:36:49.417Z,15.36
2022-07-26T20:39:16.315Z,15.29
2022-07-26T20:41:43.217Z,15.31
2022-07-26T20:44:10.476Z,15.20
2022-07-26T20:46:40.242Z,15.13
2022-07-26T20:49:09.997Z,15.12
2022-07-26T20:51:37.772Z,15.04
2022-07-26T20:54:04.937Z,14.96
2022-07-26T20:56:33.183Z,14.97
2022-07-26T20:59:02.344Z,14.93
2022-07-26T21:01:33.444Z,14.87
2022-07-26T21:04:00.586Z,14.81
2022-07-26T21:06:29.226Z,14.69
2022-07-26T21:08:57.939Z,14.59
2022-07-26T21:11:24.978Z,14.59
2022-07-26T21:13:53.169Z,14.56
2022-07-26T21:16:20.176Z,14.43
2022-07-26T21:18:52.405Z,14.40
2022-07-26T21:21:20.646Z,14.42
2022-07-26T21:23:47.597Z,14.27
2022-07-26T21:26:14.412Z,14.24
2022-07-26T21:28:41.244Z,14.24
2022-07-26T21:31:08.064Z,14.11
2022-07-26T21:33:34.931Z,14.05
2022-07-26T21:36:01.841Z,14.02
2022-07-26T21:38:32.005Z,14.05
2022-07-26T21:40:59.386Z,14.01
2022-07-26T21:43:26.594Z,13.93
2022-07-26T21:45:53.474Z,13.93
2022-07-26T21:48:21.659Z,13.83
2022-07-26T21:50:48.505Z,13.94
2022-07-26T21:53:15.366Z,13.82
2022-07-26T21:55:42.257Z,13.78
2022-07-26T21:58:09.192Z,13.79
2022-07-26T22:00:36.951Z,13.66
2022-07-26T22:03:03.948Z,13.63
2022-07-26T22:05:42.207Z,13.58
2022-07-26T22:08:14.655Z,13.62
2022-07-26T22:10:45.137Z,13.68
2022-07-26T22:13:14.168Z,13.54
2022-07-26T22:15:41.363Z,13.56
2022-07-26T22:18:09.806Z,13.46
2022-07-26T22:20:37.066Z,13.42
2022-07-26T22:23:08.713Z,13.45
2022-07-26T22:25:36.936Z,13.27
2022-07-26T22:28:05.429Z,13.28
2022-07-26T22:30:32.877Z,13.21
2022-07-26T22:33:01.495Z,13.25
2022-07-26T22:35:34.864Z,13.21
2022-07-26T22:38:08.815Z,13.24
2022-07-26T22:40:36.381Z,13.23
2022-07-26T22:43:04.081Z,13.24
2022-07-26T22:45:31.078Z,13.28
2022-07-26T22:47:58.486Z,13.25
2022-07-26T22:50:25.674Z,13.26
2022-07-26T22:52:52.924Z,13.31
2022-07-26T22:55:20.665Z,13.31
2022-07-26T22:57:47.569Z,13.36
2022-07-26T23:00:16.490Z,13.40
2022-07-26T23:02:43.763Z,13.36
2022-07-26T23:05:11.985Z,13.30
2022-07-26T23:07:39.456Z,13.31
2022-07-26T23:10:09.171Z,13.34
2022-07-26T23:12:36.492Z,13.23
2022-07-26T23:15:05.376Z,13.20
2022-07-26T23:17:32.253Z,13.26
2022-07-26T23:19:59.085Z,13.20
2022-07-26T23:22:26.082Z,13.14
2022-07-26T23:24:53.927Z,13.06
2022-07-26T23:27:20.766Z,13.12
2022-07-26T23:29:49.017Z,13.16
2022-07-26T23:32:16.660Z,13.24
2022-07-26T23:34:43.782Z,13.23
2022-07-26T23:37:10.728Z,13.13
2022-07-26T23:39:37.644Z,13.15
2022-07-26T23:42:04.634Z,13.14
2022-07-26T23:44:31.550Z,13.13
2022-07-26T23:46:59.403Z,13.02
2022-07-26T23:49:26.515Z,12.96
2022-07-26T23:51:53.563Z,12.84
2022-07-26T23:54:20.563Z,12.76
2022-07-26T23:56:47.644Z,12.78
2022-07-26T23:59:15.076Z,12.77
